Time;durP1;ratioP1;P1;durP2;ratioP2;P2;SDS_P1;SDS_P2;PMS_P1;PMS_P2;Temp;Humidity;BMP_temperature;BMP_pressure;BME280_temperature;BME280_humidity;BME280_pressure;Samples;Min_cycle;Max_cycle;Signal;HPM_P1;HPM_P2
2023/05/22 00:01:05;;;;;;;11.48;9.45;;;;;;;16.89;100.00;100585.44;6249497;28;20849;-91
2023/05/22 00:04:07;;;;;;;12.18;9.40;;;;;;;16.86;100.00;100580.53;6221395;28;20143;-91
2023/05/22 00:07:09;;;;;;;11.23;9.30;;;;;;;16.85;100.00;100584.97;6222605;28;20038;-91
2023/05/22 00:10:11;;;;;;;12.30;10.10;;;;;;;16.85;100.00;100579.72;6207293;28;20140;-91
2023/05/22 00:13:13;;;;;;;12.55;9.38;;;;;;;16.84;100.00;100580.69;6223277;28;20057;-91
2023/05/22 00:16:15;;;;;;;10.32;9.23;;;;;;;16.83;100.00;100586.91;6220520;28;20041;-92
2023/05/22 00:19:17;;;;;;;10.50;9.38;;;;;;;16.80;100.00;100571.56;6234739;28;20868;-91
2023/05/22 00:22:19;;;;;;;12.05;10.57;;;;;;;16.75;100.00;100574.63;6218517;28;20056;-91
2023/05/22 00:25:22;;;;;;;12.60;10.85;;;;;;;16.72;100.00;100579.31;6245062;28;20110;-91
2023/05/22 00:28:25;;;;;;;15.02;11.75;;;;;;;16.66;100.00;100577.38;6210557;28;20041;-92
2023/05/22 00:31:27;;;;;;;14.10;10.85;;;;;;;16.60;100.00;100576.22;6255607;28;20041;-92
2023/05/22 00:34:29;;;;;;;12.18;10.80;;;;;;;16.60;100.00;100572.78;6225949;28;20044;-91
2023/05/22 00:37:30;;;;;;;15.05;11.35;;;;;;;16.58;100.00;100568.53;6238281;28;20040;-92
2023/05/22 00:40:33;;;;;;;15.68;11.45;;;;;;;16.60;100.00;100564.94;6233470;28;20033;-91
2023/05/22 00:43:38;;;;;;;13.80;10.63;;;;;;;16.55;100.00;100561.00;6205458;28;20503;-91
2023/05/22 00:46:40;;;;;;;10.93;9.82;;;;;;;16.55;100.00;100568.84;6209165;28;20057;-91
2023/05/22 00:49:44;;;;;;;12.32;9.95;;;;;;;16.54;100.00;100556.75;6231753;28;20739;-91
2023/05/22 00:52:46;;;;;;;13.27;9.80;;;;;;;16.52;100.00;100561.34;6235157;28;20049;-91
2023/05/22 00:55:48;;;;;;;11.52;9.75;;;;;;;16.51;100.00;100564.91;6238061;28;20045;-91
2023/05/22 00:58:50;;;;;;;12.68;9.63;;;;;;;16.50;100.00;100565.88;6254425;28;20037;-91
2023/05/22 01:01:53;;;;;;;11.30;9.82;;;;;;;16.50;100.00;100557.25;6232399;28;20584;-91
2023/05/22 01:04:56;;;;;;;12.13;9.65;;;;;;;16.48;100.00;100554.78;6225264;28;20041;-91
2023/05/22 01:07:58;;;;;;;13.25;9.60;;;;;;;16.51;100.00;100557.06;6227645;28;20057;-91
2023/05/22 01:11:05;;;;;;;14.20;9.95;;;;;;;16.51;100.00;100549.22;6224560;28;20041;-91
2023/05/22 01:14:13;;;;;;;10.05;9.07;;;;;;;16.51;100.00;100548.41;6228435;28;20072;-92
2023/05/22 01:17:33;;;;;;;10.73;9.18;;;;;;;16.49;100.00;100550.38;6229619;28;20414;-92
2023/05/22 01:20:42;;;;;;;12.93;10.30;;;;;;;16.47;100.00;100549.69;6231806;28;20045;-91
2023/05/22 01:24:16;;;;;;;14.20;10.48;;;;;;;16.45;100.00;100547.25;6231079;28;20042;-91
2023/05/22 01:27:36;;;;;;;11.15;9.73;;;;;;;16.42;100.00;100547.59;6140685;28;20148;-91
2023/05/22 01:31:03;;;;;;;14.77;9.75;;;;;;;16.38;100.00;100545.44;6128875;29;20546;-91
2023/05/22 01:34:10;;;;;;;11.93;9.10;;;;;;;16.34;100.00;100539.69;6140205;28;20054;-91
2023/05/22 01:37:14;;;;;;;11.93;9.32;;;;;;;16.31;100.00;100542.63;6124357;28;20648;-91
2023/05/22 01:40:17;;;;;;;14.90;9.70;;;;;;;16.26;100.00;100547.53;6150747;28;20051;-91
2023/05/22 01:43:19;;;;;;;14.02;9.80;;;;;;;16.24;100.00;100544.25;6138933;28;20046;-91
2023/05/22 01:46:25;;;;;;;11.70;10.00;;;;;;;16.19;100.00;100542.09;6142423;28;20965;-91
2023/05/22 01:49:27;;;;;;;11.80;9.10;;;;;;;16.14;100.00;100545.16;6128017;28;21434;-91
2023/05/22 01:52:58;;;;;;;11.65;9.77;;;;;;;16.11;100.00;100542.06;6110231;28;20095;-91
2023/05/22 01:56:09;;;;;;;;;;;;;;;16.06;100.00;100539.94;6133518;28;20039;-91
2023/05/22 01:59:36;;;;;;;11.05;9.30;;;;;;;16.05;100.00;100538.31;6138265;28;20379;-91
2023/05/22 02:03:01;;;;;;;12.40;9.18;;;;;;;16.03;100.00;100527.19;6129926;28;20449;-91
2023/05/22 02:06:06;;;;;;;10.13;8.93;;;;;;;16.00;100.00;100522.28;6224871;28;20061;-91
2023/05/22 02:09:09;;;;;;;10.82;9.15;;;;;;;15.96;100.00;100518.34;6205399;28;20057;-91
2023/05/22 02:12:13;;;;;;;10.60;9.05;;;;;;;15.92;100.00;100519.63;6228389;28;20057;-91
2023/05/22 02:15:18;;;;;;;11.50;9.38;;;;;;;15.88;100.00;100519.13;6231593;28;20048;-91
2023/05/22 02:18:28;;;;;;;11.52;9.80;;;;;;;15.85;100.00;100518.59;6208458;28;20669;-91
2023/05/22 02:21:31;;;;;;;11.30;9.63;;;;;;;15.78;100.00;100520.22;6202683;28;20166;-91
2023/05/22 02:24:35;;;;;;;11.13;9.13;;;;;;;15.73;100.00;100506.81;6220263;28;20053;-90
2023/05/22 02:27:37;;;;;;;10.93;9.50;;;;;;;15.67;100.00;100509.03;6251295;28;20033;-91
2023/05/22 02:30:40;;;;;;;10.50;9.50;;;;;;;15.62;100.00;100513.06;6227006;28;20045;-91
2023/05/22 02:33:43;;;;;;;11.48;9.30;;;;;;;15.58;100.00;100509.97;6200549;28;20050;-91
2023/05/22 02:36:46;;;;;;;10.88;9.75;;;;;;;15.52;100.00;100510.56;6239698;28;20037;-91
2023/05/22 02:39:48;;;;;;;11.77;9.93;;;;;;;15.49;100.00;100506.47;6222930;28;20053;-91
2023/05/22 02:42:51;;;;;;;10.05;8.98;;;;;;;15.48;100.00;100498.81;6215314;28;20057;-91
2023/05/22 02:45:52;;;;;;;14.65;10.20;;;;;;;15.45;100.00;100497.34;6220191;28;20498;-91
2023/05/22 02:48:54;;;;;;;12.10;9.23;;;;;;;15.40;100.00;100496.13;6211672;28;20042;-91
2023/05/22 02:51:57;;;;;;;10.40;9.30;;;;;;;15.41;100.00;100503.81;6200398;28;20042;-91
2023/05/22 02:54:58;;;;;;;14.95;9.38;;;;;;;15.39;100.00;100502.34;6220748;28;20604;-91
2023/05/22 02:58:02;;;;;;;10.90;8.80;;;;;;;15.37;100.00;100499.06;6222473;28;20045;-91
2023/05/22 03:01:07;;;;;;;12.30;9.85;;;;;;;15.33;100.00;100500.31;6214697;28;20045;-91
2023/05/22 03:04:11;;;;;;;10.85;9.27;;;;;;;15.31;100.00;100497.88;6247390;28;20041;-91
2023/05/22 03:07:15;;;;;;;10.40;9.30;;;;;;;15.29;100.00;100495.41;6225756;28;20503;-92
2023/05/22 03:10:17;;;;;;;10.10;9.07;;;;;;;15.25;100.00;100499.31;6237722;28;20037;-91
2023/05/22 03:13:19;;;;;;;11.35;10.10;;;;;;;15.22;100.00;100491.78;6207674;28;20045;-91
2023/05/22 03:16:21;;;;;;;14.18;9.65;;;;;;;15.21;100.00;100495.38;6227871;28;20048;-91
2023/05/22 03:19:23;;;;;;;11.07;9.80;;;;;;;15.21;100.00;100489.34;6231379;28;20540;-91
2023/05/22 03:22:26;;;;;;;13.55;9.52;;;;;;;15.18;100.00;100500.91;6249793;28;20064;-91
2023/05/22 03:25:28;;;;;;;12.77;10.68;;;;;;;15.17;100.00;100499.25;6206975;28;20046;-91
2023/05/22 03:28:30;;;;;;;12.55;9.50;;;;;;;15.16;100.00;100496.81;6224705;28;20537;-91
2023/05/22 03:31:32;;;;;;;12.18;9.93;;;;;;;15.16;100.00;100499.41;6239491;28;20036;-91
2023/05/22 03:34:44;;;;;;;13.13;9.32;;;;;;;15.13;100.00;100510.13;6216210;28;20132;-91
2023/05/22 03:37:46;;;;;;;11.25;9.77;;;;;;;15.13;100.00;100500.53;6228956;28;20045;-91
2023/05/22 03:40:48;;;;;;;12.10;9.90;;;;;;;15.13;100.00;100497.94;6219960;28;20044;-90
2023/05/22 03:43:50;;;;;;;11.50;9.15;;;;;;;15.12;100.00;100498.88;6205363;28;20053;-91
2023/05/22 03:46:52;;;;;;;12.32;9.13;;;;;;;15.15;100.00;100502.97;6222305;28;20196;-91
2023/05/22 03:49:54;;;;;;;10.25;9.15;;;;;;;15.18;100.00;100510.47;6209200;28;20045;-91
2023/05/22 03:52:57;;;;;;;11.48;9.57;;;;;;;15.21;100.00;100500.59;6225319;28;20064;-91
2023/05/22 03:55:58;;;;;;;11.55;9.18;;;;;;;15.24;100.00;100495.06;6228273;28;20044;-91
2023/05/22 03:59:00;;;;;;;11.07;9.10;;;;;;;15.28;100.00;100496.41;6219612;28;20041;-91
2023/05/22 04:02:03;;;;;;;12.93;9.68;;;;;;;15.32;100.00;100496.09;6211159;28;20430;-91
2023/05/22 04:05:06;;;;;;;10.30;8.43;;;;;;;15.36;100.00;100492.22;6211580;28;20572;-91
2023/05/22 04:08:08;;;;;;;10.95;8.75;;;;;;;15.40;100.00;100494.38;6220173;28;20068;-92
2023/05/22 04:11:14;;;;;;;9.82;8.82;;;;;;;15.47;100.00;100505.00;6219689;28;20183;-91
2023/05/22 04:14:16;;;;;;;10.55;8.90;;;;;;;15.51;100.00;100499.31;6222869;28;20053;-91
2023/05/22 04:17:20;;;;;;;11.02;9.57;;;;;;;15.59;100.00;100493.31;6215987;28;20037;-91
2023/05/22 04:20:21;;;;;;;11.15;9.02;;;;;;;15.67;100.00;100495.97;6228097;28;20046;-91
2023/05/22 04:23:24;;;;;;;10.13;7.88;;;;;;;15.78;100.00;100502.75;6205759;28;20049;-91
2023/05/22 04:26:30;;;;;;;10.63;8.63;;;;;;;15.88;100.00;100502.66;6249035;28;20103;-91
2023/05/22 04:29:35;;;;;;;13.15;9.57;;;;;;;15.99;100.00;100502.34;6230941;28;20052;-91
2023/05/22 04:32:37;;;;;;;12.15;8.98;;;;;;;16.10;100.00;100509.09;6232093;28;20041;-91
2023/05/22 04:35:45;;;;;;;11.15;9.23;;;;;;;16.15;100.00;100510.25;6240451;28;20029;-91
2023/05/22 04:38:47;;;;;;;10.35;8.32;;;;;;;16.24;100.00;100511.09;6241539;28;20140;-91
2023/05/22 04:41:49;;;;;;;9.80;8.05;;;;;;;16.29;100.00;100506.22;6241146;28;20065;-91
2023/05/22 04:44:53;;;;;;;9.27;8.35;;;;;;;16.33;100.00;100502.31;6208876;28;20046;-91
2023/05/22 04:47:55;;;;;;;10.98;8.15;;;;;;;16.42;100.00;100504.94;6225078;28;20526;-91
2023/05/22 04:50:58;;;;;;;10.07;8.20;;;;;;;16.47;100.00;100506.13;6246868;28;20047;-91
2023/05/22 04:54:00;;;;;;;12.93;8.35;;;;;;;16.53;100.00;100497.63;6211970;28;20043;-91
2023/05/22 04:57:03;;;;;;;10.95;8.70;;;;;;;16.61;100.00;100498.63;6211861;28;20069;-90
2023/05/22 05:00:07;;;;;;;12.23;7.85;;;;;;;16.68;100.00;100503.03;6239166;28;20848;-91
2023/05/22 05:03:11;;;;;;;10.25;8.18;;;;;;;16.76;100.00;100494.38;6183738;28;20049;-90
2023/05/22 05:06:13;;;;;;;9.57;7.78;;;;;;;16.85;100.00;100487.41;6233846;28;20535;-92
2023/05/22 05:09:15;;;;;;;10.68;8.15;;;;;;;16.89;100.00;100486.09;6221085;28;20580;-90
2023/05/22 05:12:18;;;;;;;8.90;7.57;;;;;;;16.94;100.00;100494.25;6228749;28;20057;-90
2023/05/22 05:15:21;;;;;;;10.45;7.78;;;;;;;17.01;100.00;100490.81;6219227;28;20061;-91
2023/05/22 05:18:25;;;;;;;11.43;8.38;;;;;;;17.07;100.00;100491.13;6211467;28;20056;-92
2023/05/22 05:21:26;;;;;;;10.02;7.95;;;;;;;17.12;100.00;100492.31;6189080;28;20060;-91
2023/05/22 05:24:31;;;;;;;10.95;8.25;;;;;;;17.21;100.00;100490.47;6209720;28;20418;-91
2023/05/22 05:27:33;;;;;;;9.15;7.30;;;;;;;17.24;100.00;100482.28;6218567;28;20057;-91
2023/05/22 05:30:39;;;;;;;9.77;7.60;;;;;;;17.32;100.00;100481.50;6215864;28;20050;-91
2023/05/22 05:34:00;;;;;;;9.68;7.78;;;;;;;17.40;100.00;100478.84;6237303;28;20072;-91
2023/05/22 05:37:23;;;;;;;9.18;7.70;;;;;;;17.49;100.00;100482.25;6211595;28;20060;-91
2023/05/22 05:40:26;;;;;;;8.07;7.25;;;;;;;17.58;100.00;100486.50;6225963;28;20053;-91
2023/05/22 05:43:28;;;;;;;11.55;7.85;;;;;;;17.67;100.00;100487.31;6214851;28;20054;-91
2023/05/22 05:46:36;;;;;;;9.30;7.50;;;;;;;17.78;100.00;100479.88;6210370;28;20046;-91
2023/05/22 05:49:38;;;;;;;10.35;6.80;;;;;;;17.84;100.00;100486.28;6204682;28;20140;-91
2023/05/22 05:52:41;;;;;;;11.02;7.85;;;;;;;17.93;100.00;100481.81;6198218;28;20049;-92
2023/05/22 05:55:47;;;;;;;10.13;7.72;;;;;;;18.03;100.00;100480.63;6216349;28;20042;-91
2023/05/22 05:58:50;;;;;;;10.02;7.72;;;;;;;18.12;100.00;100489.28;6211622;28;20558;-90
2023/05/22 06:02:02;;;;;;;9.45;7.45;;;;;;;18.17;100.00;100484.34;6210749;28;20108;-91
2023/05/22 06:05:07;;;;;;;9.38;7.45;;;;;;;18.22;100.00;100489.88;6228771;28;20148;-91
2023/05/22 06:08:12;;;;;;;8.50;7.60;;;;;;;18.28;100.00;100493.59;6210808;28;20115;-91
2023/05/22 06:11:15;;;;;;;9.90;8.25;;;;;;;18.30;100.00;100487.19;6198028;28;20058;-91
2023/05/22 06:14:27;;;;;;;9.23;7.13;;;;;;;18.39;100.00;100484.56;6233286;28;20053;-91
2023/05/22 06:17:28;;;;;;;8.02;7.03;;;;;;;18.40;100.00;100486.16;6240990;28;20060;-91
2023/05/22 06:20:31;;;;;;;8.63;7.00;;;;;;;18.41;100.00;100490.41;6242156;28;20142;-91
2023/05/22 06:23:34;;;;;;;8.05;7.15;;;;;;;18.44;100.00;100493.53;6229555;28;20041;-92
2023/05/22 06:26:37;;;;;;;9.20;7.15;;;;;;;18.46;100.00;100490.72;6212921;28;20045;-91
2023/05/22 06:29:39;;;;;;;9.95;7.50;;;;;;;18.57;100.00;100492.94;6236290;28;20715;-91
2023/05/22 06:32:41;;;;;;;9.13;7.45;;;;;;;18.66;100.00;100496.34;6213434;28;20045;-92
2023/05/22 06:35:44;;;;;;;10.57;7.65;;;;;;;18.78;100.00;100499.38;6239402;28;20041;-91
2023/05/22 06:38:48;;;;;;;8.85;7.13;;;;;;;18.92;100.00;100496.81;6207586;28;20041;-91
2023/05/22 06:42:10;;;;;;;8.82;7.93;;;;;;;19.06;100.00;100499.66;6221871;28;20764;-91
2023/05/22 06:45:47;;;;;;;14.77;7.38;;;;;;;19.14;100.00;100505.63;6157018;28;20524;-91
2023/05/22 06:49:08;;;;;;;11.68;8.07;;;;;;;19.13;100.00;100498.78;6164782;28;20090;-91
2023/05/22 06:52:17;;;;;;;8.43;7.57;;;;;;;19.12;100.00;100512.88;6163571;28;20264;-91
2023/05/22 06:55:19;;;;;;;8.35;7.55;;;;;;;19.12;100.00;100512.06;6137452;28;20536;-91
2023/05/22 06:58:34;;;;;;;10.00;7.05;;;;;;;19.11;100.00;100510.44;6145696;28;20055;-91
2023/05/22 07:01:39;;;;;;;9.65;7.82;;;;;;;19.13;100.00;100517.13;6170719;28;20501;-92
2023/05/22 07:04:44;;;;;;;8.93;7.80;;;;;;;19.21;100.00;100510.19;6164383;28;20050;-91
2023/05/22 07:07:51;;;;;;;10.38;7.72;;;;;;;19.33;100.00;100506.94;6147531;28;20057;-92
2023/05/22 07:10:54;;;;;;;9.68;7.90;;;;;;;19.45;100.00;100507.34;6162040;28;20054;-91
2023/05/22 07:13:56;;;;;;;11.15;7.57;;;;;;;19.52;100.00;100507.41;6171489;28;20038;-92
2023/05/22 07:16:58;;;;;;;10.60;7.78;;;;;;;19.53;100.00;100504.63;6135789;28;20047;-91
2023/05/22 07:20:08;;;;;;;10.25;7.50;;;;;;;19.53;100.00;100504.63;6177504;28;20076;-91
2023/05/22 07:23:12;;;;;;;11.25;7.50;;;;;;;19.57;100.00;100503.25;6216499;28;20444;-92
2023/05/22 07:26:15;;;;;;;10.57;7.43;;;;;;;19.58;100.00;100511.97;6220199;28;20066;-92
2023/05/22 07:29:24;;;;;;;10.23;7.32;;;;;;;19.60;100.00;100499.44;6212779;28;20057;-91
2023/05/22 07:32:28;;;;;;;8.68;7.20;;;;;;;19.72;100.00;100502.47;6229943;28;20396;-91
2023/05/22 07:35:33;;;;;;;9.60;7.97;;;;;;;19.81;100.00;100498.75;6204395;28;20049;-95
2023/05/22 07:38:35;;;;;;;8.98;7.10;;;;;;;19.94;100.00;100496.28;6220494;28;20052;-94
2023/05/22 07:41:38;;;;;;;9.38;7.85;;;;;;;20.15;100.00;100492.91;6215074;28;20137;-94
2023/05/22 07:44:43;;;;;;;9.43;7.57;;;;;;;20.27;100.00;100492.41;6216795;28;20589;-94
2023/05/22 07:47:45;;;;;;;8.27;7.38;;;;;;;20.21;100.00;100492.16;6245388;28;20411;-94
2023/05/22 07:50:47;;;;;;;8.05;7.22;;;;;;;20.14;100.00;100485.22;6219142;28;20663;-94
2023/05/22 07:53:49;;;;;;;9.52;7.72;;;;;;;20.13;100.00;100496.72;6219107;28;20667;-94
2023/05/22 07:56:51;;;;;;;10.30;7.68;;;;;;;20.09;100.00;100493.63;6204345;28;20059;-94
2023/05/22 07:59:55;;;;;;;10.43;8.05;;;;;;;20.13;100.00;100488.84;6203509;28;20045;-94
2023/05/22 08:02:57;;;;;;;7.60;6.90;;;;;;;20.22;100.00;100496.44;6222936;28;20043;-94
2023/05/22 08:06:00;;;;;;;12.45;7.93;;;;;;;20.36;100.00;100505.28;6203539;28;20510;-94
2023/05/22 08:09:03;;;;;;;9.00;7.68;;;;;;;20.43;100.00;100506.16;6226443;28;20123;-95
2023/05/22 08:12:06;;;;;;;10.38;7.82;;;;;;;20.50;100.00;100503.59;6225651;28;20091;-94
2023/05/22 08:15:09;;;;;;;10.73;7.40;;;;;;;20.58;100.00;100500.88;6215309;28;20068;-94
2023/05/22 08:18:12;;;;;;;9.40;8.40;;;;;;;20.71;100.00;100500.19;6233049;28;20057;-94
2023/05/22 08:21:14;;;;;;;8.35;7.20;;;;;;;20.81;100.00;100508.56;6240926;28;20469;-94
2023/05/22 08:24:16;;;;;;;10.38;7.38;;;;;;;20.88;100.00;100492.06;6227388;28;20129;-94
2023/05/22 08:27:18;;;;;;;10.10;8.30;;;;;;;20.93;100.00;100492.28;6198678;28;20053;-94
2023/05/22 08:30:21;;;;;;;11.23;7.35;;;;;;;21.00;100.00;100490.53;6200128;28;20044;-94
2023/05/22 08:33:23;;;;;;;8.05;7.25;;;;;;;21.10;100.00;100479.69;6227770;28;20095;-95
2023/05/22 08:36:25;;;;;;;9.90;7.55;;;;;;;21.13;100.00;100481.91;6244122;28;20041;-95
2023/05/22 08:39:27;;;;;;;8.80;7.38;;;;;;;21.20;100.00;100480.97;6214937;28;20149;-95
2023/05/22 08:42:29;;;;;;;8.95;7.53;;;;;;;21.30;100.00;100468.25;6221569;28;20048;-95
2023/05/22 08:45:33;;;;;;;8.93;7.63;;;;;;;21.42;100.00;100467.78;6236675;28;20143;-94
2023/05/22 08:48:37;;;;;;;8.98;7.50;;;;;;;21.57;100.00;100476.34;6221360;28;20115;-94
2023/05/22 08:51:41;;;;;;;11.32;7.57;;;;;;;21.59;100.00;100469.09;6239027;28;20037;-95
2023/05/22 08:54:51;;;;;;;8.63;7.55;;;;;;;21.59;100.00;100469.09;6226181;28;20049;-95
2023/05/22 08:57:55;;;;;;;9.20;7.85;;;;;;;21.59;100.00;100466.44;6221795;28;20041;-93
2023/05/22 09:00:58;;;;;;;8.18;7.38;;;;;;;21.65;100.00;100470.13;6235012;28;20034;-93
2023/05/22 09:04:02;;;;;;;11.50;8.02;;;;;;;21.77;100.00;100467.75;6206778;28;20071;-93
2023/05/22 09:07:04;;;;;;;9.52;7.32;;;;;;;21.89;100.00;100456.44;6202089;28;20784;-93
2023/05/22 09:10:07;;;;;;;9.10;7.20;;;;;;;22.05;100.00;100452.63;6220506;28;20048;-93
2023/05/22 09:13:10;;;;;;;9.43;7.72;;;;;;;22.20;100.00;100460.41;6234575;28;20052;-93
2023/05/22 09:16:12;;;;;;;8.65;7.60;;;;;;;22.36;100.00;100453.97;6231576;28;20709;-93
2023/05/22 09:19:15;;;;;;;9.68;7.30;;;;;;;22.51;100.00;100454.59;6228915;28;20514;-93
2023/05/22 09:22:17;;;;;;;9.63;7.03;;;;;;;22.72;100.00;100452.78;6239434;28;20301;-93
2023/05/22 09:25:20;;;;;;;11.77;7.00;;;;;;;22.92;100.00;100461.50;6210250;28;20054;-93
2023/05/22 09:28:23;;;;;;;11.02;7.15;;;;;;;23.09;100.00;100454.00;6239410;28;20466;-93
2023/05/22 09:31:28;;;;;;;7.88;7.07;;;;;;;23.20;100.00;100449.91;6232606;28;20049;-93
2023/05/22 09:34:31;;;;;;;8.73;7.60;;;;;;;23.25;100.00;100452.75;6198911;28;20072;-93
2023/05/22 09:37:34;;;;;;;8.88;7.35;;;;;;;23.33;100.00;100444.63;6211186;28;20102;-92
2023/05/22 09:40:37;;;;;;;8.38;7.57;;;;;;;23.31;100.00;100451.94;6223923;28;20041;-92
2023/05/22 09:43:49;;;;;;;8.55;7.60;;;;;;;23.30;100.00;100450.28;6219562;28;20053;-92
2023/05/22 09:46:53;;;;;;;9.18;7.10;;;;;;;23.28;100.00;100448.88;6213944;28;20042;-92
2023/05/22 09:49:57;;;;;;;12.20;7.30;;;;;;;23.36;100.00;100448.69;6214798;28;20606;-92
2023/05/22 09:53:03;;;;;;;9.38;7.15;;;;;;;23.54;100.00;100443.53;6209288;28;20053;-93
2023/05/22 09:56:10;;;;;;;9.75;7.55;;;;;;;23.73;100.00;100446.34;6195899;28;20050;-92
2023/05/22 09:59:14;;;;;;;8.35;7.05;;;;;;;23.95;100.00;100446.84;6207254;28;20048;-92
2023/05/22 10:02:17;;;;;;;7.97;7.15;;;;;;;24.07;100.00;100440.69;6236507;28;20083;-93
2023/05/22 10:05:20;;;;;;;9.75;7.95;;;;;;;24.16;100.00;100443.88;6227534;28;20594;-93
2023/05/22 10:08:40;;;;;;;8.75;7.85;;;;;;;24.23;100.00;100439.38;6220639;28;20042;-93
2023/05/22 10:11:43;;;;;;;9.45;7.60;;;;;;;24.29;100.00;100443.78;6235855;28;20046;-92
2023/05/22 10:14:45;;;;;;;8.02;7.07;;;;;;;24.38;100.00;100444.34;6232183;28;20044;-92
2023/05/22 10:17:48;;;;;;;8.32;7.50;;;;;;;24.48;100.00;100447.38;6229686;28;20049;-92
2023/05/22 10:20:50;;;;;;;8.15;7.35;;;;;;;24.56;100.00;100448.13;6237874;28;20184;-92
2023/05/22 10:23:53;;;;;;;8.82;6.50;;;;;;;24.64;100.00;100443.38;6224575;28;20045;-93
2023/05/22 10:26:56;;;;;;;11.02;7.70;;;;;;;24.82;100.00;100439.16;6237852;28;20046;-92
2023/05/22 10:30:23;;;;;;;10.23;7.20;;;;;;;24.95;100.00;100435.59;6234763;28;20381;-92
2023/05/22 10:33:50;;;;;;;9.73;7.38;;;;;;;25.03;100.00;100422.88;6249723;28;20045;-92
2023/05/22 10:37:10;;;;;;;10.48;7.65;;;;;;;25.16;100.00;100427.22;6225049;28;20089;-92
2023/05/22 10:40:33;;;;;;;9.10;7.55;;;;;;;25.22;100.00;100428.22;6237290;28;20124;-92
2023/05/22 10:43:43;;;;;;;8.52;7.65;;;;;;;25.23;100.00;100421.88;6227830;28;20045;-92
2023/05/22 10:46:54;;;;;;;8.40;6.82;;;;;;;25.18;100.00;100419.09;6215684;28;20598;-92
2023/05/22 10:50:07;;;;;;;10.00;7.15;;;;;;;25.21;100.00;100416.78;6221621;28;20053;-96
2023/05/22 10:53:26;;;;;;;8.55;7.55;;;;;;;25.21;100.00;100422.09;6232728;28;20644;-93
2023/05/22 10:56:34;;;;;;;9.87;7.83;;;;;;;25.25;100.00;100406.59;6219779;28;20128;-93
2023/05/22 10:59:36;;;;;;;9.52;7.65;;;;;;;25.25;100.00;100401.28;6234455;28;20064;-93
2023/05/22 11:02:44;;;;;;;10.70;7.53;;;;;;;25.13;100.00;100415.22;6229079;28;20503;-93
2023/05/22 11:05:53;;;;;;;9.38;7.43;;;;;;;25.03;100.00;100414.91;6208259;28;20056;-93
2023/05/22 11:08:56;;;;;;;8.80;7.70;;;;;;;25.12;100.00;100410.97;6236564;28;20103;-93
2023/05/22 11:12:20;;;;;;;8.85;7.28;;;;;;;25.30;100.00;100409.38;6215316;28;20045;-93
2023/05/22 11:15:30;;;;;;;12.88;7.50;;;;;;;25.50;100.00;100402.00;6218047;28;20921;-93
2023/05/22 11:18:32;;;;;;;8.13;7.25;;;;;;;25.65;100.00;100395.50;6249319;28;20566;-91
2023/05/22 11:21:41;;;;;;;10.57;7.93;;;;;;;25.81;100.00;100399.38;6242867;28;20045;-93
2023/05/22 11:24:43;;;;;;;10.40;8.05;;;;;;;25.95;100.00;100390.22;6258137;28;20049;-94
2023/05/22 11:27:47;;;;;;;8.70;7.88;;;;;;;26.02;100.00;100390.94;6246791;28;20846;-93
2023/05/22 11:30:49;;;;;;;9.13;8.15;;;;;;;25.88;100.00;100382.34;6240088;28;20084;-92
2023/05/22 11:33:52;;;;;;;11.02;8.18;;;;;;;25.82;100.00;100383.25;6202575;28;20053;-93
2023/05/22 11:36:58;;;;;;;9.57;7.50;;;;;;;25.92;100.00;100377.41;6248220;28;20119;-93
2023/05/22 11:40:04;;;;;;;11.50;8.48;;;;;;;26.23;100.00;100381.63;6226607;28;20061;-93
2023/05/22 11:43:08;;;;;;;11.45;8.00;;;;;;;26.48;100.00;100384.09;6234911;28;20049;-93
2023/05/22 11:46:11;;;;;;;9.13;7.45;;;;;;;26.78;100.00;100376.06;6225152;28;20502;-93
2023/05/22 11:49:13;;;;;;;13.70;8.27;;;;;;;27.00;100.00;100372.78;6213932;28;20045;-93
2023/05/22 11:52:18;;;;;;;12.43;8.43;;;;;;;27.19;100.00;100374.28;6221051;28;20480;-93
2023/05/22 11:55:21;;;;;;;10.68;8.18;;;;;;;27.26;100.00;100372.31;6200621;28;20057;-93
2023/05/22 11:58:30;;;;;;;10.35;7.32;;;;;;;27.48;100.00;100379.66;6223186;28;20143;-93
2023/05/22 12:01:32;;;;;;;11.75;8.13;;;;;;;27.65;100.00;100375.19;6235571;28;20037;-93
2023/05/22 12:04:36;;;;;;;10.93;8.07;;;;;;;27.69;100.00;100368.31;6235485;28;20119;-93
2023/05/22 12:07:38;;;;;;;9.18;7.75;;;;;;;27.81;100.00;100367.47;6247732;28;20044;-93
2023/05/22 12:10:48;;;;;;;8.90;7.60;;;;;;;27.81;100.00;100365.63;6234438;28;20034;-93
2023/05/22 12:13:59;;;;;;;11.27;7.72;;;;;;;27.80;100.00;100366.69;6206560;28;20477;-93
2023/05/22 12:17:03;;;;;;;8.13;7.32;;;;;;;27.61;100.00;100366.06;6229217;28;20131;-93
2023/05/22 12:20:06;;;;;;;8.90;8.00;;;;;;;27.32;100.00;100353.81;6223221;28;20346;-94
2023/05/22 12:23:27;;;;;;;9.00;7.75;;;;;;;26.84;100.00;100348.56;6225536;28;20148;-93
2023/05/22 12:26:30;;;;;;;9.25;7.72;;;;;;;26.50;100.00;100349.34;6242550;28;20175;-93
2023/05/22 12:29:33;;;;;;;9.98;7.57;;;;;;;26.24;100.00;100354.06;6216736;28;20048;-93
2023/05/22 12:32:35;;;;;;;8.68;7.68;;;;;;;26.09;100.00;100348.41;6219654;28;20124;-93
2023/05/22 12:35:37;;;;;;;11.88;7.97;;;;;;;25.97;100.00;100349.19;6212117;28;20042;-93
2023/05/22 12:38:41;;;;;;;15.52;8.43;;;;;;;26.00;100.00;100353.22;6232705;28;20052;-93
2023/05/22 12:41:44;;;;;;;9.52;7.97;;;;;;;26.05;100.00;100349.88;6225045;28;20091;-93
2023/05/22 12:44:46;;;;;;;9.77;7.47;;;;;;;26.14;100.00;100349.31;6228388;28;20057;-93
2023/05/22 12:47:48;;;;;;;8.40;7.57;;;;;;;26.25;100.00;100345.06;6239090;28;20073;-93
2023/05/22 12:50:49;;;;;;;8.57;7.35;;;;;;;26.41;100.00;100344.41;6218892;28;20048;-93
2023/05/22 12:53:52;;;;;;;9.25;7.57;;;;;;;26.59;100.00;100340.03;6223554;28;20044;-93
2023/05/22 12:56:54;;;;;;;11.00;7.85;;;;;;;26.79;100.00;100343.13;6228906;28;20038;-93
2023/05/22 12:59:56;;;;;;;9.40;6.75;;;;;;;26.93;100.00;100341.06;6224572;28;20041;-93
2023/05/22 13:02:58;;;;;;;8.23;7.38;;;;;;;27.13;100.00;100340.66;6219857;28;20053;-93
2023/05/22 13:06:00;;;;;;;8.35;6.70;;;;;;;27.23;100.00;100340.09;6225073;28;20426;-93
2023/05/22 13:09:02;;;;;;;10.18;7.10;;;;;;;27.45;100.00;100343.72;6244370;28;20110;-93
2023/05/22 13:12:04;;;;;;;8.82;6.90;;;;;;;27.67;100.00;100338.50;6229354;28;20052;-93
2023/05/22 13:15:07;;;;;;;8.02;6.80;;;;;;;27.85;100.00;100344.69;6211659;28;20071;-93
2023/05/22 13:18:10;;;;;;;9.55;7.45;;;;;;;28.07;100.00;100339.47;6207042;28;20045;-93
2023/05/22 13:21:12;;;;;;;8.07;7.22;;;;;;;28.22;100.00;100334.38;6233212;28;20107;-93
2023/05/22 13:24:14;;;;;;;10.30;7.05;;;;;;;28.56;100.00;100337.03;6241405;28;20411;-93
2023/05/22 13:27:17;;;;;;;8.30;6.60;;;;;;;28.87;100.00;100334.78;6233226;28;20070;-93
2023/05/22 13:30:19;;;;;;;7.38;6.60;;;;;;;29.29;100.00;100324.41;6225860;28;20120;-93
2023/05/22 13:33:21;;;;;;;7.85;6.70;;;;;;;29.86;100.00;100319.59;6233617;28;20041;-93
2023/05/22 13:36:24;;;;;;;6.82;6.13;;;;;;;30.76;100.00;100319.69;6220356;28;20049;-94
2023/05/22 13:39:26;;;;;;;6.97;6.25;;;;;;;31.73;96.81;100317.31;6233408;28;20596;-94
2023/05/22 13:42:28;;;;;;;7.13;6.25;;;;;;;32.34;80.89;100314.59;6223673;28;20042;-93
2023/05/22 13:45:31;;;;;;;9.73;6.40;;;;;;;32.41;80.17;100306.28;6216520;28;20076;-94
2023/05/22 13:48:33;;;;;;;7.40;6.63;;;;;;;32.49;85.26;100296.91;6222349;28;20029;-94
2023/05/22 13:51:36;;;;;;;8.05;6.72;;;;;;;32.65;80.08;100286.97;6244647;28;20741;-94
2023/05/22 13:54:38;;;;;;;7.38;6.57;;;;;;;32.57;70.08;100286.44;6222078;28;20037;-94
2023/05/22 13:57:40;;;;;;;7.88;7.07;;;;;;;31.66;75.77;100280.13;6222380;28;20503;-94
2023/05/22 14:00:42;;;;;;;7.60;6.82;;;;;;;30.55;84.24;100276.03;6234417;28;20409;-94
2023/05/22 14:03:46;;;;;;;8.68;6.82;;;;;;;29.77;90.63;100274.72;6225438;28;20042;-94